Aérodrome :
LOGIN :

S'inscrire | Disclaimer

   EN    FR    IT 

 










Légende :    VFR   VFR Marginal   IFR   IFR Intensif   IFR Très Intensif
Visi : 
Plafond : 
>= 8 km
>= 3000ft
5 à 8 km
1000 à 3000 ft
1500m à 5 km
500 à 1000 ft
800 à 1500m
200 à 500 ft
< 800m
< 200 ft
Symboles :   Orages  Brouillard  Fortes neiges  Fortes précipitations  Vent > 20 kt
SIGMETs :   Divers  Orages  Givrage  Turbulence  Onde Orograph.  Cendres Volcan.






- Altitude de l'aérodrome : 291 ft
- Code IATA : ORY


LFPO - Paris-Orly

DERNIER METAR :
  • 171100Z 28005KT 240V310 9999 FEW028 06/04 Q1024 NOSIG

METARs EXPIRÉS :
  • 171030Z 32008KT 9999 FEW028 SCT066 05/03 Q1024 NOSIG
  • 171000Z 31006KT 280V340 9999 FEW021CB BKN066 05/03 Q1023 RESHRA NOSIG
  • 170930Z 33012KT 310V020 5000 -SHRA BR SCT023TCU BKN066 05/03 Q1023 NOSIG
  • 170900Z 28006KT 9999 FEW033 BKN066 05/03 Q1022 NOSIG
  • 170830Z 28004KT 9999 BKN039 05/03 Q1022 NOSIG

TAF TAF LFPO
Valide du 17 à 06h jusqu'au 18 à 12h UTC


170500Z 1706/1812 29010KT 9999 BKN020
PROB30
TEMPO 1706/1711 4000 -SHRA BKN012TCU
BECMG 1722/1724 23005KT
PROB30
TEMPO 1805/1810 4000 BR BKN003
ATIS : +33 1 49 75 65 80



MET'MAP, la Météo Aéronautique d'un coup d'oeil ! - Copyright ORBIFLY Décembre 2007 - Disclaimer

ORBIFLY MET'MAP TEAM :

Programmation & Développement : Alexandra Zaïnal
Sur une idée originale de : Baudouin d'Aumeries
Assistance à la programmation : Marc-Olivier Méhu
Soutien technique & logistique : Manuel Goepfert

Contact : metmap@orbifly.com




SOURCES & CREDITS :

   NOAA